sensor_id;sensor_type;location;lat;lon;timestamp;P1;durP1;ratioP1;P2;durP2;ratioP2
51792;SDS011;37850;53.178;6.376;2023-02-12T00:02:25;25.90;;;10.80;;
51792;SDS011;37850;53.178;6.376;2023-02-12T00:04:51;21.92;;;10.10;;
51792;SDS011;37850;53.178;6.376;2023-02-12T00:07:17;25.25;;;10.85;;
51792;SDS011;37850;53.178;6.376;2023-02-12T00:09:45;23.25;;;10.65;;
51792;SDS011;37850;53.178;6.376;2023-02-12T00:12:11;23.40;;;10.25;;
51792;SDS011;37850;53.178;6.376;2023-02-12T00:14:37;24.45;;;10.15;;
51792;SDS011;37850;53.178;6.376;2023-02-12T00:17:02;23.90;;;10.88;;
51792;SDS011;37850;53.178;6.376;2023-02-12T00:19:28;21.48;;;10.27;;
51792;SDS011;37850;53.178;6.376;2023-02-12T00:21:54;26.55;;;10.00;;
51792;SDS011;37850;53.178;6.376;2023-02-12T00:24:20;24.17;;;10.75;;
51792;SDS011;37850;53.178;6.376;2023-02-12T00:26:46;28.75;;;11.27;;
51792;SDS011;37850;53.178;6.376;2023-02-12T00:29:13;24.42;;;11.50;;
51792;SDS011;37850;53.178;6.376;2023-02-12T00:31:38;26.30;;;9.90;;
51792;SDS011;37850;53.178;6.376;2023-02-12T00:34:04;28.80;;;11.38;;
51792;SDS011;37850;53.178;6.376;2023-02-12T00:36:30;25.95;;;11.23;;
51792;SDS011;37850;53.178;6.376;2023-02-12T00:38:57;24.80;;;11.68;;
51792;SDS011;37850;53.178;6.376;2023-02-12T00:41:23;35.45;;;12.30;;
51792;SDS011;37850;53.178;6.376;2023-02-12T00:43:50;29.58;;;12.27;;
51792;SDS011;37850;53.178;6.376;2023-02-12T00:46:16;24.73;;;10.93;;
51792;SDS011;37850;53.178;6.376;2023-02-12T00:48:41;28.40;;;12.27;;
51792;SDS011;37850;53.178;6.376;2023-02-12T00:51:08;30.15;;;12.43;;
51792;SDS011;37850;53.178;6.376;2023-02-12T00:53:34;23.58;;;10.90;;
51792;SDS011;37850;53.178;6.376;2023-02-12T00:56:00;24.40;;;11.30;;
51792;SDS011;37850;53.178;6.376;2023-02-12T00:58:26;25.80;;;10.88;;
51792;SDS011;37850;53.178;6.376;2023-02-12T01:00:52;29.30;;;11.77;;
51792;SDS011;37850;53.178;6.376;2023-02-12T01:03:18;26.83;;;11.43;;
51792;SDS011;37850;53.178;6.376;2023-02-12T01:05:44;27.67;;;11.60;;
51792;SDS011;37850;53.178;6.376;2023-02-12T01:08:10;26.90;;;10.88;;
51792;SDS011;37850;53.178;6.376;2023-02-12T01:10:38;26.08;;;11.02;;
51792;SDS011;37850;53.178;6.376;2023-02-12T01:13:04;28.35;;;11.98;;
51792;SDS011;37850;53.178;6.376;2023-02-12T01:15:29;27.02;;;10.63;;
51792;SDS011;37850;53.178;6.376;2023-02-12T01:17:56;28.05;;;11.65;;
51792;SDS011;37850;53.178;6.376;2023-02-12T01:20:22;28.00;;;11.50;;
51792;SDS011;37850;53.178;6.376;2023-02-12T01:22:48;29.20;;;11.82;;
51792;SDS011;37850;53.178;6.376;2023-02-12T01:25:14;30.58;;;12.18;;
51792;SDS011;37850;53.178;6.376;2023-02-12T01:27:40;30.15;;;11.85;;
51792;SDS011;37850;53.178;6.376;2023-02-12T01:30:06;35.33;;;12.15;;
51792;SDS011;37850;53.178;6.376;2023-02-12T01:32:35;34.35;;;11.80;;
51792;SDS011;37850;53.178;6.376;2023-02-12T01:35:02;32.72;;;12.05;;
51792;SDS011;37850;53.178;6.376;2023-02-12T01:37:28;28.95;;;12.73;;
51792;SDS011;37850;53.178;6.376;2023-02-12T01:39:53;30.00;;;12.80;;
51792;SDS011;37850;53.178;6.376;2023-02-12T01:42:19;32.40;;;13.35;;
51792;SDS011;37850;53.178;6.376;2023-02-12T01:45:22;36.30;;;13.73;;
51792;SDS011;37850;53.178;6.376;2023-02-12T01:50:07;32.13;;;13.75;;
51792;SDS011;37850;53.178;6.376;2023-02-12T01:52:40;29.30;;;12.45;;
51792;SDS011;37850;53.178;6.376;2023-02-12T01:55:11;34.30;;;13.77;;
51792;SDS011;37850;53.178;6.376;2023-02-12T01:57:40;31.30;;;13.52;;
51792;SDS011;37850;53.178;6.376;2023-02-12T02:00:11;39.95;;;14.52;;
51792;SDS011;37850;53.178;6.376;2023-02-12T02:02:41;34.72;;;14.15;;
51792;SDS011;37850;53.178;6.376;2023-02-12T02:05:10;35.50;;;14.65;;
51792;SDS011;37850;53.178;6.376;2023-02-12T02:07:39;32.40;;;14.60;;
51792;SDS011;37850;53.178;6.376;2023-02-12T02:10:08;34.88;;;14.50;;
51792;SDS011;37850;53.178;6.376;2023-02-12T02:12:34;32.38;;;13.88;;
51792;SDS011;37850;53.178;6.376;2023-02-12T02:15:19;41.85;;;14.05;;
51792;SDS011;37850;53.178;6.376;2023-02-12T02:31:46;30.85;;;13.23;;
51792;SDS011;37850;53.178;6.376;2023-02-12T02:34:21;35.92;;;14.80;;
51792;SDS011;37850;53.178;6.376;2023-02-12T02:37:18;30.30;;;13.63;;
51792;SDS011;37850;53.178;6.376;2023-02-12T02:40:08;35.15;;;13.90;;
51792;SDS011;37850;53.178;6.376;2023-02-12T02:42:46;40.63;;;15.00;;
51792;SDS011;37850;53.178;6.376;2023-02-12T02:45:24;31.20;;;13.90;;
51792;SDS011;37850;53.178;6.376;2023-02-12T02:47:59;37.53;;;13.88;;
51792;SDS011;37850;53.178;6.376;2023-02-12T02:50:28;33.58;;;13.48;;
51792;SDS011;37850;53.178;6.376;2023-02-12T02:53:01;27.75;;;12.23;;
51792;SDS011;37850;53.178;6.376;2023-02-12T02:55:35;32.60;;;13.38;;
51792;SDS011;37850;53.178;6.376;2023-02-12T02:58:11;32.95;;;12.68;;
51792;SDS011;37850;53.178;6.376;2023-02-12T03:00:44;52.38;;;13.13;;
51792;SDS011;37850;53.178;6.376;2023-02-12T03:03:45;34.70;;;12.33;;
51792;SDS011;37850;53.178;6.376;2023-02-12T03:09:12;36.83;;;12.30;;
51792;SDS011;37850;53.178;6.376;2023-02-12T03:11:40;36.08;;;11.90;;
51792;SDS011;37850;53.178;6.376;2023-02-12T03:17:15;29.13;;;10.85;;
51792;SDS011;37850;53.178;6.376;2023-02-12T03:19:54;34.42;;;12.05;;
51792;SDS011;37850;53.178;6.376;2023-02-12T03:22:35;28.15;;;11.85;;
51792;SDS011;37850;53.178;6.376;2023-02-12T03:25:11;40.97;;;12.27;;
51792;SDS011;37850;53.178;6.376;2023-02-12T03:27:47;28.05;;;12.13;;
51792;SDS011;37850;53.178;6.376;2023-02-12T03:30:20;26.23;;;10.73;;
51792;SDS011;37850;53.178;6.376;2023-02-12T03:32:54;29.63;;;10.88;;
51792;SDS011;37850;53.178;6.376;2023-02-12T03:35:30;30.60;;;10.70;;
51792;SDS011;37850;53.178;6.376;2023-02-12T03:38:03;28.13;;;10.10;;
51792;SDS011;37850;53.178;6.376;2023-02-12T03:46:19;22.40;;;9.32;;
51792;SDS011;37850;53.178;6.376;2023-02-12T03:51:37;26.73;;;8.35;;
51792;SDS011;37850;53.178;6.376;2023-02-12T03:54:05;21.20;;;9.07;;
51792;SDS011;37850;53.178;6.376;2023-02-12T03:56:40;18.70;;;8.82;;
51792;SDS011;37850;53.178;6.376;2023-02-12T03:59:16;19.33;;;8.18;;
51792;SDS011;37850;53.178;6.376;2023-02-12T04:01:46;20.25;;;8.77;;
51792;SDS011;37850;53.178;6.376;2023-02-12T04:04:13;18.17;;;9.02;;
51792;SDS011;37850;53.178;6.376;2023-02-12T04:06:40;19.35;;;7.95;;
51792;SDS011;37850;53.178;6.376;2023-02-12T04:09:08;17.48;;;7.57;;
51792;SDS011;37850;53.178;6.376;2023-02-12T04:23:16;15.75;;;7.22;;
51792;SDS011;37850;53.178;6.376;2023-02-12T04:33:48;16.92;;;7.28;;
51792;SDS011;37850;53.178;6.376;2023-02-12T04:36:42;18.65;;;6.90;;
51792;SDS011;37850;53.178;6.376;2023-02-12T04:39:16;32.92;;;7.45;;
51792;SDS011;37850;53.178;6.376;2023-02-12T04:41:45;30.15;;;7.53;;
51792;SDS011;37850;53.178;6.376;2023-02-12T04:46:41;17.35;;;7.30;;
51792;SDS011;37850;53.178;6.376;2023-02-12T04:49:17;15.82;;;7.03;;
51792;SDS011;37850;53.178;6.376;2023-02-12T04:51:44;14.65;;;7.03;;
51792;SDS011;37850;53.178;6.376;2023-02-12T04:54:10;14.10;;;7.22;;
51792;SDS011;37850;53.178;6.376;2023-02-12T04:56:37;31.83;;;7.25;;
51792;SDS011;37850;53.178;6.376;2023-02-12T04:59:03;21.38;;;6.88;;
51792;SDS011;37850;53.178;6.376;2023-02-12T05:01:30;21.50;;;7.55;;
51792;SDS011;37850;53.178;6.376;2023-02-12T05:03:59;19.80;;;7.07;;
51792;SDS011;37850;53.178;6.376;2023-02-12T05:06:25;14.60;;;7.72;;
51792;SDS011;37850;53.178;6.376;2023-02-12T05:08:51;15.35;;;7.50;;
51792;SDS011;37850;53.178;6.376;2023-02-12T05:11:17;14.90;;;7.70;;
51792;SDS011;37850;53.178;6.376;2023-02-12T05:13:44;19.25;;;8.25;;
51792;SDS011;37850;53.178;6.376;2023-02-12T05:16:16;16.75;;;7.88;;
51792;SDS011;37850;53.178;6.376;2023-02-12T05:18:43;14.65;;;7.55;;
51792;SDS011;37850;53.178;6.376;2023-02-12T05:21:08;13.98;;;7.90;;
51792;SDS011;37850;53.178;6.376;2023-02-12T05:23:35;17.90;;;8.27;;
51792;SDS011;37850;53.178;6.376;2023-02-12T05:26:03;14.90;;;7.90;;
51792;SDS011;37850;53.178;6.376;2023-02-12T05:28:31;14.23;;;8.13;;
51792;SDS011;37850;53.178;6.376;2023-02-12T05:31:00;17.17;;;8.80;;
51792;SDS011;37850;53.178;6.376;2023-02-12T05:33:27;18.02;;;8.20;;
51792;SDS011;37850;53.178;6.376;2023-02-12T05:35:53;16.35;;;8.55;;
51792;SDS011;37850;53.178;6.376;2023-02-12T05:38:19;16.88;;;8.65;;
51792;SDS011;37850;53.178;6.376;2023-02-12T05:40:45;16.95;;;9.15;;
51792;SDS011;37850;53.178;6.376;2023-02-12T05:43:11;17.83;;;8.80;;
51792;SDS011;37850;53.178;6.376;2023-02-12T05:45:38;17.08;;;9.23;;
51792;SDS011;37850;53.178;6.376;2023-02-12T05:48:05;18.77;;;9.77;;
51792;SDS011;37850;53.178;6.376;2023-02-12T05:50:31;18.83;;;9.98;;
51792;SDS011;37850;53.178;6.376;2023-02-12T05:53:00;18.35;;;9.40;;
51792;SDS011;37850;53.178;6.376;2023-02-12T05:55:26;19.98;;;9.90;;
51792;SDS011;37850;53.178;6.376;2023-02-12T05:57:52;17.70;;;9.63;;
51792;SDS011;37850;53.178;6.376;2023-02-12T06:00:18;21.27;;;10.82;;
51792;SDS011;37850;53.178;6.376;2023-02-12T06:02:44;18.58;;;10.45;;
51792;SDS011;37850;53.178;6.376;2023-02-12T06:05:10;19.05;;;9.80;;
51792;SDS011;37850;53.178;6.376;2023-02-12T06:07:35;22.52;;;10.98;;
51792;SDS011;37850;53.178;6.376;2023-02-12T06:10:01;21.30;;;11.30;;
51792;SDS011;37850;53.178;6.376;2023-02-12T06:12:27;20.45;;;10.55;;
51792;SDS011;37850;53.178;6.376;2023-02-12T06:14:53;18.30;;;9.70;;
51792;SDS011;37850;53.178;6.376;2023-02-12T06:17:19;18.77;;;9.57;;
51792;SDS011;37850;53.178;6.376;2023-02-12T06:19:44;20.75;;;9.55;;
51792;SDS011;37850;53.178;6.376;2023-02-12T06:22:10;17.50;;;8.98;;
51792;SDS011;37850;53.178;6.376;2023-02-12T06:24:36;20.38;;;9.85;;
51792;SDS011;37850;53.178;6.376;2023-02-12T06:27:01;19.20;;;9.05;;
51792;SDS011;37850;53.178;6.376;2023-02-12T06:29:27;22.40;;;10.15;;
51792;SDS011;37850;53.178;6.376;2023-02-12T06:31:53;22.08;;;10.27;;
51792;SDS011;37850;53.178;6.376;2023-02-12T06:34:19;21.55;;;10.68;;
51792;SDS011;37850;53.178;6.376;2023-02-12T06:36:45;20.30;;;9.73;;
51792;SDS011;37850;53.178;6.376;2023-02-12T06:39:12;22.35;;;10.60;;
51792;SDS011;37850;53.178;6.376;2023-02-12T06:41:40;21.92;;;10.65;;
51792;SDS011;37850;53.178;6.376;2023-02-12T06:44:06;24.08;;;11.45;;
51792;SDS011;37850;53.178;6.376;2023-02-12T06:46:32;22.35;;;11.20;;
51792;SDS011;37850;53.178;6.376;2023-02-12T06:48:59;22.90;;;10.80;;
51792;SDS011;37850;53.178;6.376;2023-02-12T06:51:25;25.45;;;10.93;;
51792;SDS011;37850;53.178;6.376;2023-02-12T06:53:52;21.50;;;10.15;;
51792;SDS011;37850;53.178;6.376;2023-02-12T06:56:22;22.73;;;10.70;;
51792;SDS011;37850;53.178;6.376;2023-02-12T06:58:53;24.88;;;11.73;;
51792;SDS011;37850;53.178;6.376;2023-02-12T07:01:22;23.95;;;11.02;;
51792;SDS011;37850;53.178;6.376;2023-02-12T07:03:51;23.52;;;11.13;;
51792;SDS011;37850;53.178;6.376;2023-02-12T07:06:27;24.70;;;11.43;;
51792;SDS011;37850;53.178;6.376;2023-02-12T07:08:55;19.90;;;9.90;;
51792;SDS011;37850;53.178;6.376;2023-02-12T07:11:24;24.20;;;10.50;;
51792;SDS011;37850;53.178;6.376;2023-02-12T07:13:52;18.80;;;9.77;;
51792;SDS011;37850;53.178;6.376;2023-02-12T07:16:18;20.27;;;9.50;;
51792;SDS011;37850;53.178;6.376;2023-02-12T07:18:44;21.98;;;10.27;;
51792;SDS011;37850;53.178;6.376;2023-02-12T07:21:11;22.67;;;9.30;;
51792;SDS011;37850;53.178;6.376;2023-02-12T07:23:38;19.20;;;9.05;;
51792;SDS011;37850;53.178;6.376;2023-02-12T07:26:05;19.35;;;9.07;;
51792;SDS011;37850;53.178;6.376;2023-02-12T07:28:32;20.83;;;10.07;;
51792;SDS011;37850;53.178;6.376;2023-02-12T07:31:09;24.00;;;9.15;;
51792;SDS011;37850;53.178;6.376;2023-02-12T07:33:40;19.65;;;8.48;;
51792;SDS011;37850;53.178;6.376;2023-02-12T07:36:09;20.20;;;8.77;;
51792;SDS011;37850;53.178;6.376;2023-02-12T07:38:37;23.77;;;10.00;;
51792;SDS011;37850;53.178;6.376;2023-02-12T07:43:41;22.35;;;9.23;;
51792;SDS011;37850;53.178;6.376;2023-02-12T07:46:12;25.97;;;10.23;;
51792;SDS011;37850;53.178;6.376;2023-02-12T07:48:41;26.80;;;9.93;;
51792;SDS011;37850;53.178;6.376;2023-02-12T07:51:12;22.88;;;9.77;;
51792;SDS011;37850;53.178;6.376;2023-02-12T07:53:40;22.10;;;9.98;;
51792;SDS011;37850;53.178;6.376;2023-02-12T07:56:08;22.85;;;10.43;;
51792;SDS011;37850;53.178;6.376;2023-02-12T07:58:36;26.45;;;11.52;;
51792;SDS011;37850;53.178;6.376;2023-02-12T08:01:12;28.90;;;11.90;;
51792;SDS011;37850;53.178;6.376;2023-02-12T08:03:49;27.45;;;11.70;;
51792;SDS011;37850;53.178;6.376;2023-02-12T08:06:17;28.50;;;11.98;;
51792;SDS011;37850;53.178;6.376;2023-02-12T08:08:45;33.45;;;12.57;;
51792;SDS011;37850;53.178;6.376;2023-02-12T08:11:12;32.35;;;12.40;;
51792;SDS011;37850;53.178;6.376;2023-02-12T08:13:39;29.70;;;12.38;;
51792;SDS011;37850;53.178;6.376;2023-02-12T08:16:06;29.88;;;12.65;;
51792;SDS011;37850;53.178;6.376;2023-02-12T08:18:33;29.30;;;12.73;;
51792;SDS011;37850;53.178;6.376;2023-02-12T08:21:10;35.25;;;13.35;;
51792;SDS011;37850;53.178;6.376;2023-02-12T08:23:40;32.93;;;12.60;;
51792;SDS011;37850;53.178;6.376;2023-02-12T08:26:07;34.30;;;13.07;;
51792;SDS011;37850;53.178;6.376;2023-02-12T08:28:57;32.83;;;13.45;;
51792;SDS011;37850;53.178;6.376;2023-02-12T08:31:29;32.30;;;12.90;;
51792;SDS011;37850;53.178;6.376;2023-02-12T08:33:56;30.77;;;13.60;;
51792;SDS011;37850;53.178;6.376;2023-02-12T08:36:24;33.13;;;14.02;;
51792;SDS011;37850;53.178;6.376;2023-02-12T08:38:51;34.67;;;14.80;;
51792;SDS011;37850;53.178;6.376;2023-02-12T08:41:19;34.08;;;14.73;;
51792;SDS011;37850;53.178;6.376;2023-02-12T08:43:47;36.72;;;14.68;;
51792;SDS011;37850;53.178;6.376;2023-02-12T08:46:14;38.63;;;14.88;;
51792;SDS011;37850;53.178;6.376;2023-02-12T08:48:42;33.95;;;14.80;;
51792;SDS011;37850;53.178;6.376;2023-02-12T08:51:11;36.35;;;14.70;;
51792;SDS011;37850;53.178;6.376;2023-02-12T08:53:43;35.45;;;15.20;;
51792;SDS011;37850;53.178;6.376;2023-02-12T08:56:11;36.05;;;15.20;;
51792;SDS011;37850;53.178;6.376;2023-02-12T08:58:39;36.72;;;14.77;;
51792;SDS011;37850;53.178;6.376;2023-02-12T09:01:10;38.63;;;16.17;;
51792;SDS011;37850;53.178;6.376;2023-02-12T09:03:37;40.13;;;17.00;;
51792;SDS011;37850;53.178;6.376;2023-02-12T09:06:04;31.05;;;15.57;;
51792;SDS011;37850;53.178;6.376;2023-02-12T09:08:31;38.90;;;15.98;;
51792;SDS011;37850;53.178;6.376;2023-02-12T09:10:57;39.65;;;16.63;;
51792;SDS011;37850;53.178;6.376;2023-02-12T09:13:23;34.38;;;15.90;;
51792;SDS011;37850;53.178;6.376;2023-02-12T09:15:52;35.33;;;16.73;;
51792;SDS011;37850;53.178;6.376;2023-02-12T09:18:18;35.42;;;16.45;;
51792;SDS011;37850;53.178;6.376;2023-02-12T09:20:44;35.58;;;15.60;;
51792;SDS011;37850;53.178;6.376;2023-02-12T09:23:10;40.10;;;17.25;;
51792;SDS011;37850;53.178;6.376;2023-02-12T09:25:38;37.40;;;18.73;;
51792;SDS011;37850;53.178;6.376;2023-02-12T09:28:08;38.80;;;18.15;;
51792;SDS011;37850;53.178;6.376;2023-02-12T09:30:35;41.00;;;18.15;;
51792;SDS011;37850;53.178;6.376;2023-02-12T09:33:02;42.50;;;18.00;;
51792;SDS011;37850;53.178;6.376;2023-02-12T09:35:28;40.63;;;18.63;;
51792;SDS011;37850;53.178;6.376;2023-02-12T09:37:54;42.05;;;18.67;;
51792;SDS011;37850;53.178;6.376;2023-02-12T09:46:31;38.75;;;17.17;;
51792;SDS011;37850;53.178;6.376;2023-02-12T09:49:14;37.85;;;18.38;;
51792;SDS011;37850;53.178;6.376;2023-02-12T09:51:55;44.22;;;18.25;;
51792;SDS011;37850;53.178;6.376;2023-02-12T09:54:23;36.35;;;18.83;;
51792;SDS011;37850;53.178;6.376;2023-02-12T09:56:58;36.28;;;18.80;;
51792;SDS011;37850;53.178;6.376;2023-02-12T09:59:32;38.60;;;18.88;;
51792;SDS011;37850;53.178;6.376;2023-02-12T10:02:36;39.47;;;19.50;;
51792;SDS011;37850;53.178;6.376;2023-02-12T10:04:55;36.50;;;18.05;;
51792;SDS011;37850;53.178;6.376;2023-02-12T10:10:26;38.35;;;17.45;;
51792;SDS011;37850;53.178;6.376;2023-02-12T10:13:07;35.53;;;18.25;;
51792;SDS011;37850;53.178;6.376;2023-02-12T10:15:42;35.00;;;18.05;;
51792;SDS011;37850;53.178;6.376;2023-02-12T10:21:15;38.25;;;18.27;;
51792;SDS011;37850;53.178;6.376;2023-02-12T10:26:37;38.92;;;18.50;;
51792;SDS011;37850;53.178;6.376;2023-02-12T10:31:41;38.97;;;19.60;;
51792;SDS011;37850;53.178;6.376;2023-02-12T10:34:13;35.15;;;18.35;;
51792;SDS011;37850;53.178;6.376;2023-02-12T10:36:45;37.80;;;19.05;;
51792;SDS011;37850;53.178;6.376;2023-02-12T10:39:30;36.50;;;18.73;;
51792;SDS011;37850;53.178;6.376;2023-02-12T10:42:11;34.78;;;17.00;;
51792;SDS011;37850;53.178;6.376;2023-02-12T10:44:46;34.95;;;16.80;;
51792;SDS011;37850;53.178;6.376;2023-02-12T10:47:22;32.60;;;17.13;;
51792;SDS011;37850;53.178;6.376;2023-02-12T10:49:57;34.42;;;16.85;;
51792;SDS011;37850;53.178;6.376;2023-02-12T10:54:57;29.80;;;15.57;;
51792;SDS011;37850;53.178;6.376;2023-02-12T10:57:23;34.72;;;15.88;;
51792;SDS011;37850;53.178;6.376;2023-02-12T10:59:53;32.95;;;15.75;;
51792;SDS011;37850;53.178;6.376;2023-02-12T11:04:54;31.02;;;13.77;;
51792;SDS011;37850;53.178;6.376;2023-02-12T11:07:22;36.28;;;15.05;;
51792;SDS011;37850;53.178;6.376;2023-02-12T11:09:49;34.05;;;14.20;;
51792;SDS011;37850;53.178;6.376;2023-02-12T11:12:34;32.33;;;15.05;;
51792;SDS011;37850;53.178;6.376;2023-02-12T11:15:12;30.40;;;15.13;;
51792;SDS011;37850;53.178;6.376;2023-02-12T11:23:03;28.67;;;15.40;;
51792;SDS011;37850;53.178;6.376;2023-02-12T11:25:31;31.27;;;15.18;;
51792;SDS011;37850;53.178;6.376;2023-02-12T11:30:59;28.58;;;14.73;;
51792;SDS011;37850;53.178;6.376;2023-02-12T11:33:44;25.60;;;12.52;;
51792;SDS011;37850;53.178;6.376;2023-02-12T11:36:23;22.50;;;10.77;;
51792;SDS011;37850;53.178;6.376;2023-02-12T11:38:56;16.05;;;8.13;;
51792;SDS011;37850;53.178;6.376;2023-02-12T11:41:30;12.15;;;6.10;;
51792;SDS011;37850;53.178;6.376;2023-02-12T11:44:01;9.85;;;4.68;;
51792;SDS011;37850;53.178;6.376;2023-02-12T11:46:57;12.52;;;4.63;;
51792;SDS011;37850;53.178;6.376;2023-02-12T11:49:33;8.68;;;3.22;;
51792;SDS011;37850;53.178;6.376;2023-02-12T11:52:05;7.78;;;2.08;;
51792;SDS011;37850;53.178;6.376;2023-02-12T11:54:33;4.53;;;0.90;;
51792;SDS011;37850;53.178;6.376;2023-02-12T12:00:02;1.00;;;0.32;;
51792;SDS011;37850;53.178;6.376;2023-02-12T12:02:38;1.52;;;0.35;;
51792;SDS011;37850;53.178;6.376;2023-02-12T12:05:14;1.33;;;0.30;;
51792;SDS011;37850;53.178;6.376;2023-02-12T12:07:51;1.58;;;0.50;;
51792;SDS011;37850;53.178;6.376;2023-02-12T12:10:36;1.73;;;0.43;;
51792;SDS011;37850;53.178;6.376;2023-02-12T12:13:17;1.83;;;0.47;;
51792;SDS011;37850;53.178;6.376;2023-02-12T12:15:56;5.45;;;0.60;;
51792;SDS011;37850;53.178;6.376;2023-02-12T12:19:04;5.82;;;1.73;;
51792;SDS011;37850;53.178;6.376;2023-02-12T12:28:00;8.40;;;3.70;;
51792;SDS011;37850;53.178;6.376;2023-02-12T12:44:08;10.10;;;4.15;;
51792;SDS011;37850;53.178;6.376;2023-02-12T12:54:59;8.63;;;3.17;;
51792;SDS011;37850;53.178;6.376;2023-02-12T12:57:51;9.32;;;3.70;;
51792;SDS011;37850;53.178;6.376;2023-02-12T13:00:40;7.38;;;3.58;;
51792;SDS011;37850;53.178;6.376;2023-02-12T13:05:56;10.38;;;4.65;;
51792;SDS011;37850;53.178;6.376;2023-02-12T13:08:41;9.80;;;4.25;;
51792;SDS011;37850;53.178;6.376;2023-02-12T13:13:56;7.60;;;3.25;;
51792;SDS011;37850;53.178;6.376;2023-02-12T13:16:48;10.52;;;3.90;;
51792;SDS011;37850;53.178;6.376;2023-02-12T13:19:37;7.93;;;3.50;;
51792;SDS011;37850;53.178;6.376;2023-02-12T13:22:20;7.70;;;3.65;;
51792;SDS011;37850;53.178;6.376;2023-02-12T13:27:32;9.73;;;3.88;;
51792;SDS011;37850;53.178;6.376;2023-02-12T13:30:06;12.40;;;4.60;;
51792;SDS011;37850;53.178;6.376;2023-02-12T13:35:26;9.95;;;5.25;;
51792;SDS011;37850;53.178;6.376;2023-02-12T13:37:55;9.63;;;4.35;;
51792;SDS011;37850;53.178;6.376;2023-02-12T13:40:23;11.45;;;5.07;;
51792;SDS011;37850;53.178;6.376;2023-02-12T13:46:10;14.80;;;6.72;;
51792;SDS011;37850;53.178;6.376;2023-02-12T13:56:39;21.80;;;12.48;;
51792;SDS011;37850;53.178;6.376;2023-02-12T14:01:57;21.60;;;12.98;;
51792;SDS011;37850;53.178;6.376;2023-02-12T14:07:08;25.65;;;14.60;;
51792;SDS011;37850;53.178;6.376;2023-02-12T14:14:43;32.10;;;15.52;;
51792;SDS011;37850;53.178;6.376;2023-02-12T14:22:56;27.70;;;15.77;;
51792;SDS011;37850;53.178;6.376;2023-02-12T14:25:32;24.58;;;14.48;;
51792;SDS011;37850;53.178;6.376;2023-02-12T14:30:45;27.00;;;16.02;;
51792;SDS011;37850;53.178;6.376;2023-02-12T14:33:49;29.17;;;15.70;;
51792;SDS011;37850;53.178;6.376;2023-02-12T14:41:41;27.33;;;14.98;;
51792;SDS011;37850;53.178;6.376;2023-02-12T14:49:31;27.75;;;15.52;;
51792;SDS011;37850;53.178;6.376;2023-02-12T14:52:05;28.45;;;15.90;;
51792;SDS011;37850;53.178;6.376;2023-02-12T14:54:40;27.55;;;16.60;;
51792;SDS011;37850;53.178;6.376;2023-02-12T14:57:26;26.08;;;15.05;;
51792;SDS011;37850;53.178;6.376;2023-02-12T15:02:59;24.75;;;14.00;;
51792;SDS011;37850;53.178;6.376;2023-02-12T15:05:28;24.08;;;13.13;;
51792;SDS011;37850;53.178;6.376;2023-02-12T15:07:58;22.30;;;12.55;;
51792;SDS011;37850;53.178;6.376;2023-02-12T15:10:36;25.38;;;13.55;;
51792;SDS011;37850;53.178;6.376;2023-02-12T15:23:42;19.88;;;11.25;;
51792;SDS011;37850;53.178;6.376;2023-02-12T15:26:12;20.88;;;11.13;;
51792;SDS011;37850;53.178;6.376;2023-02-12T15:31:06;17.25;;;11.43;;
51792;SDS011;37850;53.178;6.376;2023-02-12T15:33:36;17.42;;;11.82;;
51792;SDS011;37850;53.178;6.376;2023-02-12T15:36:06;17.55;;;11.07;;
51792;SDS011;37850;53.178;6.376;2023-02-12T15:38:35;20.02;;;11.23;;
51792;SDS011;37850;53.178;6.376;2023-02-12T15:41:08;17.20;;;11.18;;
51792;SDS011;37850;53.178;6.376;2023-02-12T15:43:47;20.90;;;12.50;;
51792;SDS011;37850;53.178;6.376;2023-02-12T15:46:16;18.48;;;12.00;;
51792;SDS011;37850;53.178;6.376;2023-02-12T15:48:43;18.23;;;11.48;;
51792;SDS011;37850;53.178;6.376;2023-02-12T15:53:54;17.88;;;11.68;;
51792;SDS011;37850;53.178;6.376;2023-02-12T15:56:22;18.40;;;10.85;;
51792;SDS011;37850;53.178;6.376;2023-02-12T15:58:51;20.63;;;11.95;;
51792;SDS011;37850;53.178;6.376;2023-02-12T16:01:19;20.98;;;12.10;;
51792;SDS011;37850;53.178;6.376;2023-02-12T16:03:51;22.08;;;11.63;;
51792;SDS011;37850;53.178;6.376;2023-02-12T16:06:22;18.27;;;12.05;;
51792;SDS011;37850;53.178;6.376;2023-02-12T16:09:14;20.02;;;11.82;;
51792;SDS011;37850;53.178;6.376;2023-02-12T16:11:42;19.70;;;12.63;;
51792;SDS011;37850;53.178;6.376;2023-02-12T16:17:30;20.73;;;12.27;;
51792;SDS011;37850;53.178;6.376;2023-02-12T16:19:59;19.52;;;12.48;;
51792;SDS011;37850;53.178;6.376;2023-02-12T16:22:32;23.60;;;12.35;;
51792;SDS011;37850;53.178;6.376;2023-02-12T16:25:02;19.77;;;12.07;;
51792;SDS011;37850;53.178;6.376;2023-02-12T16:27:36;20.75;;;12.65;;
51792;SDS011;37850;53.178;6.376;2023-02-12T16:30:06;21.13;;;13.07;;
51792;SDS011;37850;53.178;6.376;2023-02-12T16:32:48;21.17;;;12.65;;
51792;SDS011;37850;53.178;6.376;2023-02-12T16:37:41;23.25;;;14.25;;
51792;SDS011;37850;53.178;6.376;2023-02-12T16:47:56;21.77;;;12.52;;
51792;SDS011;37850;53.178;6.376;2023-02-12T16:50:33;25.10;;;12.23;;
51792;SDS011;37850;53.178;6.376;2023-02-12T16:53:04;21.40;;;11.48;;
51792;SDS011;37850;53.178;6.376;2023-02-12T16:55:32;16.48;;;10.88;;
51792;SDS011;37850;53.178;6.376;2023-02-12T16:58:00;12.63;;;7.38;;
51792;SDS011;37850;53.178;6.376;2023-02-12T17:00:26;10.35;;;6.38;;
51792;SDS011;37850;53.178;6.376;2023-02-12T17:02:53;10.55;;;5.82;;
51792;SDS011;37850;53.178;6.376;2023-02-12T17:05:20;10.75;;;5.50;;
51792;SDS011;37850;53.178;6.376;2023-02-12T17:07:47;8.77;;;5.18;;
51792;SDS011;37850;53.178;6.376;2023-02-12T17:10:14;11.88;;;6.53;;
51792;SDS011;37850;53.178;6.376;2023-02-12T17:12:48;12.95;;;7.68;;
51792;SDS011;37850;53.178;6.376;2023-02-12T17:15:17;13.27;;;8.10;;
51792;SDS011;37850;53.178;6.376;2023-02-12T17:17:49;18.35;;;9.27;;
51792;SDS011;37850;53.178;6.376;2023-02-12T17:20:15;17.02;;;9.23;;
51792;SDS011;37850;53.178;6.376;2023-02-12T17:22:44;18.85;;;10.23;;
51792;SDS011;37850;53.178;6.376;2023-02-12T17:25:14;20.85;;;12.60;;
51792;SDS011;37850;53.178;6.376;2023-02-12T17:27:40;18.60;;;11.77;;
51792;SDS011;37850;53.178;6.376;2023-02-12T17:30:06;18.65;;;11.43;;
51792;SDS011;37850;53.178;6.376;2023-02-12T17:32:33;19.55;;;12.38;;
51792;SDS011;37850;53.178;6.376;2023-02-12T17:34:59;19.55;;;11.95;;
51792;SDS011;37850;53.178;6.376;2023-02-12T17:37:24;22.20;;;14.00;;
51792;SDS011;37850;53.178;6.376;2023-02-12T17:39:50;22.92;;;14.10;;
51792;SDS011;37850;53.178;6.376;2023-02-12T17:42:16;26.25;;;16.80;;
51792;SDS011;37850;53.178;6.376;2023-02-12T17:44:42;28.23;;;16.08;;
51792;SDS011;37850;53.178;6.376;2023-02-12T17:47:08;27.45;;;17.50;;
51792;SDS011;37850;53.178;6.376;2023-02-12T17:49:34;26.67;;;16.17;;
51792;SDS011;37850;53.178;6.376;2023-02-12T17:52:00;28.45;;;16.98;;
51792;SDS011;37850;53.178;6.376;2023-02-12T17:54:26;25.30;;;16.02;;
51792;SDS011;37850;53.178;6.376;2023-02-12T17:56:52;28.40;;;16.95;;
51792;SDS011;37850;53.178;6.376;2023-02-12T17:59:17;26.55;;;16.48;;
51792;SDS011;37850;53.178;6.376;2023-02-12T18:01:43;25.52;;;16.83;;
51792;SDS011;37850;53.178;6.376;2023-02-12T18:04:10;26.27;;;16.95;;
51792;SDS011;37850;53.178;6.376;2023-02-12T18:06:36;25.05;;;15.93;;
51792;SDS011;37850;53.178;6.376;2023-02-12T18:09:02;27.75;;;17.65;;